Lake Worth, FL (33460)

11:40 AM EST on February 12, 2016 (GMT -0500)
Lake Clarke Shores - Caribbean Rd. East | | Change Station
CLOSE
Current Station
Personal Weather Station
Location: Lake Clarke Shores, FL
Elevation: 16 ft
Nearby Weather Stations

Elev 16 ft 26.63 °N, 80.07 °W | Updated 25 seconds ago

Clear
Clear
77.2 °F
Feels Like 79 °F
N
1.6
Wind Variable Wind from East
Gusts 1.6 mph

Today
High -- | Low -- °F
--% Chance of Precip.
Yesterday
High -- | Low -- °F
Precip. -- in
Pressure 30.33 in
Visibility 10.0 miles
Clouds Few 3000 ft
Few 25000 ft
Heat Index 79 °F
Dew Point 54 °F
Humidity 44%
Rainfall in
Snow Depth Not available.
6:58 AM 6:10 PM
Waxing Crescent, 22% visible
METAR KPBI 121553Z VRB03KT 10SM FEW030 FEW250 21/09 A3033 RMK AO2 SLP269 FU FEW030 T02060089
Pressure 30.33 in
Visibility 10.0 miles
Clouds Few 3000 ft
Few 25000 ft
Heat Index 79 °F
Dew Point 54 °F
Humidity 44%
Rainfall in
Snow Depth Not available.
6:58 AM 6:10 PM
Waxing Crescent, 22% visible
METAR KPBI 121553Z VRB03KT 10SM FEW030 FEW250 21/09 A3033 RMK AO2 SLP269 FU FEW030 T02060089

10-Day Weather Forecast

Almanac

Astronomy

Feb. 12, 2016 Rise Set
Actual Time
Civil Twilight
Nautical Twilight
Astronomical Twilight
Moon
Length of Visible Light
Length of Day
Tomorrow will be .
, % of the Moon is Illuminated

Today's Extremes

State Highs State Lows

Community

WunderPhotos

Upload Photos

1,892,351 photos uploaded!

WunderBlog® & News

Nearby

Air Quality

  Air Quality AQ Index Pollutant
Not available.

Snow Depth

Station Depth Elevation

Earthquake Activity

City Distance Mag. Time & Date
Minimum magnitude displayed is 2.5.

Coastal Water Temperatures

Place Temperature

Stations

Nearby Weather Stations

Station Location Temp. Windchill Dew Point Humidity Wind Precip. Elev Updated Type
                   

Watches & Warnings

There are currently no watches in effect.